Mura (Bages)





Hora UTC 20:55
Temperatura 5.1 ºC
Humedad 63.0 %
Presión 998.9 hPa
Pluja 0.0 mm
Velocidad viento 0.0 km/h
Dirección viento

Datos diarios 2024-02-23



Hora UTC (invierno +1h; verano +2h)
Temperatura (ºC) Humedad (%) Presión (hPa) Velocidad viento (km/h) Precipitación (mm)
Hora UTC Aire Humedad Presión Vel. Dir. Vel. Max Dir. Intent. máx 5 min.
00:05 13.1 70.0 996.2 1.6 1.6 0.0
00:15 12.9 71.0 996.2 0.0 6.4 0.0
00:25 12.8 71.0 996.1 0.0 6.4 0.0
00:35 12.6 72.0 996.1 0.0 6.4 0.0
00:45 12.2 73.0 996.0 0.0 6.4 0.0
00:55 12.1 71.0 996.2 0.0 6.4 0.0
01:05 11.9 72.0 996.2 4.8 16.1 0.0
01:15 11.6 71.0 996.5 1.6 16.1 0.0
01:25 11.4 70.0 996.4 0.0 16.1 0.0
01:35 11.2 70.0 996.4 1.6 16.1 0.0
01:45 10.8 71.0 996.7 4.8 16.1 0.0
01:55 10.2 72.0 996.7 9.7 19.3 0.0
02:05 9.4 71.0 996.7 12.9 22.5 0.0
02:15 9.1 71.0 996.7 12.9 22.5 0.0
02:25 8.9 70.0 996.5 6.4 22.5 0.0
02:35 8.8 70.0 996.5 4.8 22.5 0.0
02:45 8.6 70.0 996.3 4.8 22.5 0.0
02:55 8.4 71.0 996.2 0.0 22.5 0.0
03:05 8.2 71.0 996.2 0.0 22.5 0.0
03:15 7.9 72.0 996.2 0.0 22.5 0.0
03:25 7.7 72.0 996.1 0.0 22.5 0.0
03:35 7.6 72.0 996.1 0.0 22.5 0.0
03:45 7.3 72.0 996.1 0.0 22.5 0.0
03:55 6.8 72.0 995.9 0.0 22.5 0.0
04:05 6.2 74.0 995.9 0.0 22.5 0.0
04:15 5.8 73.0 995.9 0.0 22.5 0.0
04:25 5.0 75.0 996.1 0.0 22.5 0.0
04:35 4.8 76.0 996.1 0.0 22.5 0.0
04:45 4.4 77.0 996.2 0.0 22.5 0.0
04:55 4.1 78.0 996.2 0.0 22.5 0.0
05:05 4.1 78.0 996.2 0.0 22.5 0.0
05:15 4.1 78.0 996.1 0.0 22.5 0.0
05:25 3.7 79.0 996.2 0.0 22.5 0.0
05:35 3.6 80.0 996.2 0.0 22.5 0.0
05:45 3.4 79.0 996.4 0.0 22.5 0.0
05:55 2.9 81.0 996.8 0.0 22.5 0.0
06:05 2.6 82.0 996.8 0.0 22.5 0.0
06:15 2.6 82.0 996.8 0.0 22.5 0.0
06:25 2.4 85.0 996.9 0.0 22.5 0.0
06:35 2.9 82.0 996.9 0.0 22.5 0.0
06:45 2.7 82.0 997.1 0.0 22.5 0.0
06:55 2.3 83.0 997.3 0.0 22.5 0.0
07:05 2.1 84.0 997.3 0.0 22.5 0.0
07:15 2.1 85.0 997.4 0.0 22.5 0.0
07:25 2.1 85.0 997.8 0.0 22.5 0.0
07:35 2.3 85.0 997.8 1.6 22.5 0.0
07:45 3.0 83.0 997.9 0.0 22.5 0.0
07:55 3.7 82.0 998.2 0.0 22.5 0.0
08:05 4.6 77.0 998.2 0.0 22.5 0.0
08:15 5.5 73.0 998.5 0.0 22.5 0.0
08:25 5.7 72.0 998.3 0.0 22.5 0.0
08:35 6.4 70.0 998.3 0.0 22.5 0.0
08:45 7.0 68.0 998.3 0.0 22.5 0.0
08:55 7.0 65.0 998.5 0.0 22.5 0.0
09:05 7.4 63.0 998.5 0.0 22.5 0.0
09:15 7.5 62.0 998.5 1.6 22.5 0.0
09:25 7.8 60.0 998.5 4.8 22.5 0.0
09:35 7.7 60.0 998.5 14.5 32.2 0.0
09:45 8.1 60.0 998.6 4.8 32.2 0.0
09:55 8.4 58.0 998.6 8.0 32.2 0.0
10:05 8.2 58.0 998.6 19.3 33.8 0.0
10:15 8.3 59.0 998.9 12.9 33.8 0.0
10:25 8.7 58.0 998.7 6.4 33.8 0.0
10:35 8.8 57.0 998.7 12.9 33.8 0.0
10:45 8.9 56.0 998.6 14.5 33.8 0.0
10:55 9.1 54.0 998.7 12.9 33.8 0.0
11:05 9.3 53.0 998.7 9.7 33.8 0.0
11:15 9.3 51.0 998.5 8.0 33.8 0.0
11:25 9.7 51.0 998.5 14.5 33.8 0.0
11:35 10.1 51.0 998.5 4.8 33.8 0.0
11:45 10.4 49.0 998.4 6.4 33.8 0.0
11:55 10.3 50.0 998.1 4.8 33.8 0.0
12:05 10.4 49.0 998.1 11.3 33.8 0.0
12:15 10.8 48.0 998.0 8.0 33.8 0.0
12:25 10.2 49.0 997.9 14.5 38.6 0.0
12:35 9.9 50.0 997.9 14.5 38.6 0.0
12:45 10.3 49.0 997.5 17.7 38.6 0.0
12:55 10.4 49.0 997.6 9.7 38.6 0.0
13:05 10.6 47.0 997.6 6.4 38.6 0.0
13:15 11.3 46.0 997.4 6.4 38.6 0.0
13:25 10.9 46.0 997.1 16.1 41.8 0.0
13:35 11.2 46.0 997.1 17.7 41.8 0.0
13:45 11.2 45.0 997.0 9.7 41.8 0.0
13:55 11.1 45.0 997.3 4.8 41.8 0.0
14:05 11.1 46.0 997.3 4.8 41.8 0.0
14:15 11.6 45.0 997.3 4.8 41.8 0.0
14:25 11.8 45.0 997.1 3.2 41.8 0.0
14:35 12.2 43.0 997.1 3.2 41.8 0.0
14:45 11.9 43.0 996.9 14.5 41.8 0.0
14:55 11.7 43.0 997.1 12.9 41.8 0.0
15:05 11.6 43.0 997.1 9.7 43.5 0.0
15:15 11.8 42.0 997.2 16.1 43.5 0.0
15:25 12.1 41.0 997.2 6.4 43.5 0.0
15:35 11.9 41.0 997.2 11.3 43.5 0.0
15:45 11.6 42.0 997.3 8.0 43.5 0.0
15:55 11.5 42.0 997.3 9.7 43.5 0.0
16:05 11.1 43.0 997.3 6.4 43.5 0.0
16:15 11.0 43.0 997.2 1.6 43.5 0.0
16:25 10.7 43.0 997.4 4.8 43.5 0.0
16:35 10.7 43.0 997.4 3.2 43.5 0.0
16:45 10.7 43.0 997.7 3.2 43.5 0.0
16:55 10.5 42.0 997.8 4.8 43.5 0.0
17:05 10.3 42.0 997.8 4.8 43.5 0.0
17:15 10.3 42.0 997.8 6.4 43.5 0.0
17:25 10.1 43.0 998.1 3.2 43.5 0.0
17:35 9.9 44.0 998.1 0.0 43.5 0.0
17:45 9.8 44.0 998.2 1.6 43.5 0.0
17:55 9.7 44.0 998.4 1.6 43.5 0.0
18:05 9.6 45.0 998.4 1.6 43.5 0.0
18:15 9.4 46.0 998.3 1.6 43.5 0.0
18:25 9.4 46.0 998.4 0.0 43.5 0.0
18:35 9.3 47.0 998.4 0.0 43.5 0.0
18:45 9.2 47.0 998.5 0.0 43.5 0.0
18:55 9.1 48.0 998.9 0.0 43.5 0.0
19:05 9.0 49.0 998.9 0.0 43.5 0.0
19:15 8.6 50.0 999.0 0.0 43.5 0.0
19:25 8.4 51.0 999.0 1.6 43.5 0.0
19:35 8.3 51.0 999.0 1.6 43.5 0.0
19:45 8.2 52.0 999.0 0.0 43.5 0.0
19:55 7.8 53.0 999.0 0.0 43.5 0.0
20:05 6.8 55.0 999.0 0.0 43.5 0.0
20:15 5.9 58.0 999.1 0.0 43.5 0.0
20:25 5.4 60.0 999.1 0.0 43.5 0.0
20:35 5.1 61.0 999.1 0.0 43.5 0.0
20:45 5.1 63.0 999.0 0.0 43.5 0.0
20:55 5.1 63.0 998.9 0.0 43.5 0.0
Máxima 13.1 85.0 999.1 19.3 43.5 0.0
Mínima 2.0 41.0 995.9
Total 0.0